Time;durP1;ratioP1;P1;durP2;ratioP2;P2;SDS_P1;SDS_P2;PMS_P1;PMS_P2;Temp;Humidity;BMP_temperature;BMP_pressure;BME280_temperature;BME280_humidity;BME280_pressure;Samples;Min_cycle;Max_cycle;Signal;HPM_P1;HPM_P2
2022/06/22 00:01:35;;;;;;;5.63;5.27;;;26.20;48.90;;;;;;20601;6875;120027;31
2022/06/22 00:04:00;;;;;;;6.25;5.85;;;26.10;48.80;;;;;;20427;6875;337295;31
2022/06/22 00:06:43;;;;;;;6.17;5.27;;;26.20;49.00;;;;;;20619;6881;118944;31
2022/06/22 00:09:08;;;;;;;6.60;6.00;;;26.00;49.10;;;;;;20381;6881;302108;31
2022/06/22 00:11:35;;;;;;;6.47;5.97;;;26.10;49.20;;;;;;20563;6881;119695;31
2022/06/22 00:13:59;;;;;;;5.87;5.40;;;26.00;49.20;;;;;;20614;6886;120116;31
2022/06/22 00:16:31;;;;;;;6.13;5.70;;;25.70;49.50;;;;;;20417;6886;280135;31
2022/06/22 00:18:57;;;;;;;6.78;6.28;;;25.80;50.00;;;;;;20401;6877;338531;31
2022/06/22 00:21:32;;;;;;;6.17;5.70;;;26.00;49.60;;;;;;20627;6877;119684;31
2022/06/22 00:23:58;;;;;;;6.90;6.40;;;25.80;49.40;;;;;;20375;6877;279897;31
2022/06/22 00:26:23;;;;;;;6.90;6.40;;;25.90;49.70;;;;;;20642;6877;119085;31
2022/06/22 00:28:59;;;;;;;7.00;6.35;;;25.70;49.70;;;;;;20451;6877;279283;31
2022/06/22 00:31:37;;;;;;;6.37;6.03;;;25.70;50.00;;;;;;20626;6877;128300;31
2022/06/22 00:34:03;;;;;;;6.93;6.23;;;25.50;50.00;;;;;;20645;6876;117223;31
2022/06/22 00:36:30;;;;;;;6.77;6.30;;;25.20;50.40;;;;;;20387;6880;308570;31
2022/06/22 00:38:54;;;;;;;6.43;5.93;;;25.30;50.90;;;;;;20394;6886;279878;31
2022/06/22 00:41:23;;;;;;;6.40;6.00;;;25.60;50.50;;;;;;20627;6876;117515;31
2022/06/22 00:43:49;;;;;;;5.90;5.60;;;25.50;50.40;;;;;;20641;6875;121142;31
2022/06/22 00:46:14;;;;;;;6.55;6.05;;;25.20;50.80;;;;;;20435;6875;309394;31
2022/06/22 00:48:41;;;;;;;7.03;6.43;;;25.40;51.30;;;;;;20426;6875;288328;31
2022/06/22 00:51:07;;;;;;;6.70;6.30;;;25.60;50.90;;;;;;20438;6875;279035;31
2022/06/22 00:53:56;;;;;;;6.70;6.20;;;25.80;50.50;;;;;;20415;6875;338323;31
2022/06/22 00:56:38;;;;;;;6.57;6.07;;;26.00;50.10;;;;;;20327;6875;308319;31
2022/06/22 00:59:06;;;;;;;7.07;6.57;;;26.20;49.90;;;;;;20426;6875;337706;31
2022/06/22 01:01:58;;;;;;;6.87;6.37;;;26.30;49.80;;;;;;20293;6875;282546;31
2022/06/22 01:04:30;;;;;;;6.83;6.30;;;26.30;49.60;;;;;;20391;6875;278791;31
2022/06/22 01:06:56;;;;;;;7.10;6.50;;;26.40;49.60;;;;;;20383;6881;337680;31
2022/06/22 01:09:38;;;;;;;8.43;7.10;;;26.50;49.70;;;;;;20403;6881;308978;31
2022/06/22 01:12:23;;;;;;;7.33;6.83;;;26.50;49.70;;;;;;20385;6886;307591;31
2022/06/22 01:15:09;;;;;;;7.27;6.77;;;26.50;49.70;;;;;;20410;6877;295760;31
2022/06/22 01:17:35;;;;;;;8.40;7.67;;;26.60;49.80;;;;;;20397;6881;308999;31
2022/06/22 01:20:23;;;;;;;7.22;6.72;;;26.60;49.70;;;;;;20434;6881;312528;31
2022/06/22 01:22:48;;;;;;;6.63;6.23;;;26.60;49.70;;;;;;20611;6886;117147;31
2022/06/22 01:25:34;;;;;;;7.87;7.37;;;26.20;50.00;;;;;;20409;6877;326328;31
2022/06/22 01:28:00;;;;;;;8.00;7.40;;;26.20;50.60;;;;;;20417;6881;279463;31
2022/06/22 01:30:38;;;;;;;7.87;7.37;;;26.30;50.50;;;;;;20605;6886;117309;31
2022/06/22 01:33:23;;;;;;;7.90;7.30;;;26.00;50.50;;;;;;20419;6877;309777;31
2022/06/22 01:35:48;;;;;;;7.43;7.00;;;26.10;50.90;;;;;;19631;6891;310039;31
2022/06/22 01:38:14;;;;;;;8.52;7.72;;;26.30;50.70;;;;;;20580;6890;121441;31
2022/06/22 01:40:46;;;;;;;7.47;6.93;;;26.00;50.60;;;;;;20580;6890;119097;31
2022/06/22 01:43:15;;;;;;;6.70;6.20;;;25.70;51.00;;;;;;20609;6888;117885;31
2022/06/22 01:46:07;;;;;;;8.17;7.37;;;25.40;51.50;;;;;;20384;6889;280383;31
2022/06/22 01:48:43;;;;;;;9.07;7.40;;;25.50;52.70;;;;;;20602;6889;116826;31
2022/06/22 01:51:10;;;;;;;9.48;8.88;;;25.40;52.60;;;;;;20381;6890;279782;31
2022/06/22 01:53:39;;;;;;;8.53;7.93;;;25.50;55.30;;;;;;20575;6890;117226;31
2022/06/22 01:56:14;;;;;;;9.60;8.85;;;25.30;54.30;;;;;;20378;6890;344797;31
2022/06/22 01:58:44;;;;;;;9.27;8.43;;;25.30;54.70;;;;;;20435;6890;118570;31
2022/06/22 02:01:09;;;;;;;9.10;8.47;;;25.10;54.50;;;;;;20575;6890;117545;31
2022/06/22 02:03:43;;;;;;;10.68;9.88;;;24.60;55.00;;;;;;20352;6890;337116;31
2022/06/22 02:08:57;;;;;;;9.33;8.73;;;24.30;56.40;;;;;;20601;6890;118407;31
2022/06/22 02:11:23;;;;;;;10.23;9.30;;;23.90;56.80;;;;;;20570;6890;120477;31
2022/06/22 02:14:03;;;;;;;10.90;10.13;;;23.70;57.50;;;;;;20377;6890;310435;31
2022/06/22 02:16:33;;;;;;;9.57;8.87;;;23.90;59.50;;;;;;20479;6890;117330;31
2022/06/22 02:19:00;;;;;;;9.40;8.80;;;23.90;58.80;;;;;;20631;6890;119307;31
2022/06/22 02:21:46;;;;;;;9.23;8.53;;;23.70;59.00;;;;;;20629;6890;118574;31
2022/06/22 02:24:17;;;;;;;9.07;8.53;;;23.50;59.30;;;;;;20415;6890;307206;31
2022/06/22 02:26:49;;;;;;;10.07;9.32;;;23.80;60.20;;;;;;20388;6890;337826;31
2022/06/22 02:29:15;;;;;;;8.83;8.20;;;24.20;59.90;;;;;;20576;6890;118986;31
2022/06/22 02:31:40;;;;;;;10.93;10.32;;;24.10;59.20;;;;;;20380;6890;332845;31
2022/06/22 02:34:06;;;;;;;11.18;10.48;;;24.20;59.90;;;;;;20392;6890;310309;31
2022/06/22 02:36:32;;;;;;;10.77;10.17;;;24.40;59.70;;;;;;20386;6890;309877;31
2022/06/22 02:38:57;;;;;;;9.30;8.70;;;24.60;58.90;;;;;;20596;6890;118207;31
2022/06/22 02:46:53;;;;;;;11.93;11.03;;;23.70;59.70;;;;;;20397;6890;309863;31
2022/06/22 02:49:26;;;;;;;9.87;9.27;;;23.90;60.80;;;;;;20577;6890;118151;31
2022/06/22 02:51:52;;;;;;;10.23;9.63;;;23.90;60.20;;;;;;20347;6890;309195;31
2022/06/22 02:54:21;;;;;;;10.60;9.77;;;24.00;59.40;;;;;;20602;6890;118987;31
2022/06/22 02:56:47;;;;;;;9.97;9.27;;;24.00;59.20;;;;;;20374;6888;309560;31
2022/06/22 02:59:13;;;;;;;10.43;9.73;;;24.20;59.00;;;;;;20559;6889;120079;31
2022/06/22 03:01:39;;;;;;;10.23;9.53;;;24.10;59.00;;;;;;20592;6890;117839;31
2022/06/22 03:04:08;;;;;;;9.97;9.30;;;23.90;59.30;;;;;;20396;6890;311437;31
2022/06/22 03:06:33;;;;;;;9.87;9.27;;;24.00;59.20;;;;;;20590;6890;116943;31
2022/06/22 03:08:59;;;;;;;10.32;9.63;;;24.00;59.10;;;;;;20591;6890;116933;31
2022/06/22 03:11:24;;;;;;;10.45;9.75;;;23.80;59.30;;;;;;20366;6890;279582;31
2022/06/22 03:14:06;;;;;;;10.20;9.43;;;24.00;59.20;;;;;;20380;6890;338957;31
2022/06/22 03:16:33;;;;;;;9.97;9.30;;;24.30;58.80;;;;;;20575;6890;119961;31
2022/06/22 03:19:02;;;;;;;10.30;9.60;;;24.20;58.50;;;;;;20378;6890;342750;31
2022/06/22 03:21:28;;;;;;;11.27;10.20;;;24.20;58.30;;;;;;20568;6890;119337;31
2022/06/22 03:24:00;;;;;;;9.57;8.87;;;24.10;58.40;;;;;;20605;6890;117947;31
2022/06/22 03:26:29;;;;;;;11.00;10.30;;;23.90;58.90;;;;;;20376;6890;324909;31
2022/06/22 03:29:14;;;;;;;10.73;10.03;;;24.00;58.70;;;;;;20373;6890;278599;31
2022/06/22 03:31:43;;;;;;;10.73;9.90;;;24.30;58.20;;;;;;20383;6890;309664;31
2022/06/22 03:34:15;;;;;;;10.65;9.95;;;24.60;57.70;;;;;;20378;6890;337938;31
2022/06/22 03:36:41;;;;;;;10.53;9.83;;;24.70;57.10;;;;;;20572;6890;119785;31
2022/06/22 03:39:06;;;;;;;11.10;10.40;;;24.50;57.20;;;;;;20375;6890;305741;31
2022/06/22 03:41:32;;;;;;;10.43;9.75;;;24.60;57.70;;;;;;20342;6890;284608;31
2022/06/22 03:43:57;;;;;;;7.60;7.10;;;24.70;57.30;;;;;;20369;6890;295557;31
2022/06/22 03:46:29;;;;;;;7.70;7.10;;;24.90;56.30;;;;;;20369;6890;338733;31
2022/06/22 03:49:16;;;;;;;8.07;7.57;;;25.10;55.90;;;;;;20373;6890;309372;31
2022/06/22 03:51:55;;;;;;;8.77;8.13;;;25.40;55.50;;;;;;20181;6890;281001;31
2022/06/22 03:54:26;;;;;;;9.27;8.52;;;25.80;54.90;;;;;;20361;6890;309533;31
2022/06/22 03:56:52;;;;;;;7.43;6.93;;;26.00;54.40;;;;;;20585;6890;119051;31
2022/06/22 03:59:17;;;;;;;8.18;7.57;;;25.80;54.60;;;;;;20574;6890;117883;31
2022/06/22 04:01:43;;;;;;;8.27;7.70;;;25.50;55.20;;;;;;20391;6890;279845;31
2022/06/22 04:04:09;;;;;;;8.53;7.83;;;25.60;55.10;;;;;;20604;6890;118043;31
2022/06/22 04:06:34;;;;;;;8.90;8.30;;;25.50;55.20;;;;;;20597;6888;117121;31
2022/06/22 04:09:00;;;;;;;8.07;7.57;;;25.40;55.60;;;;;;20593;6889;118498;31
2022/06/22 04:11:32;;;;;;;9.73;8.93;;;25.20;56.00;;;;;;20369;6889;309391;31
2022/06/22 04:14:23;;;;;;;8.20;7.60;;;25.40;55.80;;;;;;20588;6890;119064;31
2022/06/22 04:16:49;;;;;;;8.10;7.60;;;25.40;55.80;;;;;;19886;6890;118966;31
2022/06/22 04:19:21;;;;;;;8.00;7.30;;;25.20;56.30;;;;;;20568;6890;119211;31
2022/06/22 04:21:49;;;;;;;9.50;8.80;;;25.20;56.60;;;;;;20599;6890;117587;31
2022/06/22 04:24:18;;;;;;;8.37;7.77;;;25.10;56.70;;;;;;20387;6890;279617;31
2022/06/22 04:26:49;;;;;;;8.07;7.57;;;25.40;56.20;;;;;;20380;6890;309582;31
2022/06/22 04:29:20;;;;;;;8.67;7.83;;;25.90;55.20;;;;;;20224;6890;122432;31
2022/06/22 04:32:14;;;;;;;8.80;8.20;;;26.00;55.10;;;;;;20374;6890;309781;31
2022/06/22 04:34:39;;;;;;;8.63;7.93;;;26.20;54.70;;;;;;20546;6890;117441;31
2022/06/22 04:37:08;;;;;;;8.70;7.97;;;26.10;54.80;;;;;;20406;6890;280038;31
2022/06/22 04:39:33;;;;;;;8.82;8.13;;;26.20;54.20;;;;;;20347;6890;309853;31
2022/06/22 04:42:00;;;;;;;8.10;7.60;;;26.50;53.80;;;;;;20373;6890;278664;31
2022/06/22 04:44:25;;;;;;;8.82;8.27;;;26.70;53.20;;;;;;20602;6890;120182;31
2022/06/22 04:46:50;;;;;;;8.95;8.35;;;26.60;54.10;;;;;;20420;6890;308065;31
2022/06/22 04:49:19;;;;;;;8.60;7.83;;;26.60;53.40;;;;;;20349;6890;280863;31
2022/06/22 04:51:45;;;;;;;10.27;9.50;;;26.70;52.60;;;;;;20438;6890;338971;31
2022/06/22 04:54:23;;;;;;;9.00;8.40;;;26.90;52.40;;;;;;20381;6890;308287;31
2022/06/22 04:56:49;;;;;;;9.03;8.30;;;26.90;52.50;;;;;;20511;6890;119056;31
2022/06/22 04:59:15;;;;;;;9.47;8.93;;;26.60;53.00;;;;;;20572;6890;117007;31
2022/06/22 05:01:40;;;;;;;10.10;9.40;;;26.20;53.70;;;;;;20386;6890;307595;31
2022/06/22 05:04:13;;;;;;;9.70;9.00;;;26.20;54.20;;;;;;20390;6890;308939;31
2022/06/22 05:06:58;;;;;;;9.50;9.00;;;26.30;54.10;;;;;;20592;6890;119362;31
2022/06/22 05:09:27;;;;;;;9.43;8.73;;;26.10;54.40;;;;;;20565;6890;119016;31
2022/06/22 05:11:52;;;;;;;9.87;9.13;;;25.70;54.90;;;;;;20287;6890;117752;31
2022/06/22 05:14:21;;;;;;;9.63;8.93;;;25.50;55.70;;;;;;20628;6890;118446;31
2022/06/22 05:16:46;;;;;;;9.60;8.70;;;25.30;56.30;;;;;;20618;6890;118964;31
2022/06/22 05:19:12;;;;;;;9.73;9.02;;;25.20;56.60;;;;;;20359;6888;312618;31
2022/06/22 05:21:38;;;;;;;9.43;8.70;;;25.50;56.30;;;;;;20606;6889;117085;31
2022/06/22 05:24:30;;;;;;;9.95;9.30;;;25.60;55.90;;;;;;20388;6889;310165;31
2022/06/22 05:26:56;;;;;;;9.80;9.20;;;25.90;55.20;;;;;;20598;6890;121690;31
2022/06/22 05:29:21;;;;;;;9.97;9.27;;;25.90;55.20;;;;;;20368;6890;279980;31
2022/06/22 05:31:49;;;;;;;8.93;8.33;;;26.10;54.70;;;;;;20375;6890;311105;31
2022/06/22 05:34:15;;;;;;;9.47;8.77;;;26.50;53.90;;;;;;20589;6890;117206;31
2022/06/22 05:36:41;;;;;;;9.50;8.80;;;26.40;53.90;;;;;;20367;6890;280212;31
2022/06/22 05:39:06;;;;;;;10.07;9.47;;;26.50;53.70;;;;;;20391;6890;290380;31
2022/06/22 05:41:32;;;;;;;9.60;8.90;;;26.70;53.30;;;;;;20364;6890;309575;31
2022/06/22 05:43:58;;;;;;;9.02;8.43;;;26.90;53.30;;;;;;20609;6890;116750;31
2022/06/22 05:46:23;;;;;;;8.97;8.30;;;26.60;53.60;;;;;;20601;6890;119249;31
2022/06/22 05:48:49;;;;;;;9.17;8.37;;;26.30;54.10;;;;;;20394;6890;311693;31
2022/06/22 05:51:17;;;;;;;8.67;8.17;;;26.40;54.50;;;;;;20361;6890;313304;31
2022/06/22 05:53:56;;;;;;;8.85;8.30;;;26.70;53.70;;;;;;20375;6890;339127;31
2022/06/22 05:56:25;;;;;;;7.73;7.33;;;26.90;53.10;;;;;;20602;6890;117470;31
2022/06/22 05:59:21;;;;;;;7.95;7.45;;;26.70;53.50;;;;;;20353;6890;309671;31
2022/06/22 06:01:53;;;;;;;8.85;8.13;;;26.80;53.00;;;;;;20384;6890;339761;31
2022/06/22 06:04:28;;;;;;;7.80;7.30;;;27.00;52.10;;;;;;20574;6890;119974;31
2022/06/22 06:06:53;;;;;;;7.60;7.20;;;26.70;52.20;;;;;;20610;6890;116966;31
2022/06/22 06:09:19;;;;;;;8.23;7.53;;;26.20;53.00;;;;;;20360;6890;280341;31
2022/06/22 06:12:01;;;;;;;7.50;7.10;;;26.20;53.20;;;;;;20598;6890;117595;31
2022/06/22 06:14:26;;;;;;;7.70;6.93;;;26.00;53.60;;;;;;20597;6890;117134;31
2022/06/22 06:16:52;;;;;;;7.80;7.10;;;25.70;54.30;;;;;;20602;6890;117183;31
2022/06/22 06:19:18;;;;;;;7.72;7.12;;;25.60;54.60;;;;;;20589;6890;118241;31
2022/06/22 06:21:43;;;;;;;8.13;7.40;;;25.40;54.80;;;;;;20604;6890;116413;31
2022/06/22 06:24:28;;;;;;;8.73;8.20;;;25.30;54.70;;;;;;20408;6890;279080;31
2022/06/22 06:29:45;;;;;;;9.23;8.40;;;25.60;54.10;;;;;;20401;6888;310839;31
2022/06/22 06:32:27;;;;;;;9.63;7.50;;;25.70;53.70;;;;;;20585;6889;116865;31
2022/06/22 06:34:53;;;;;;;9.32;8.55;;;25.50;53.90;;;;;;20403;6889;280917;31
2022/06/22 06:37:21;;;;;;;8.13;7.47;;;25.70;53.80;;;;;;20359;6890;311095;31
2022/06/22 06:39:47;;;;;;;7.17;6.77;;;26.00;53.30;;;;;;20585;6890;117521;31
2022/06/22 06:42:19;;;;;;;8.70;7.90;;;26.00;53.30;;;;;;20390;6890;301027;31
2022/06/22 06:44:44;;;;;;;8.85;8.05;;;26.10;53.00;;;;;;20299;6890;311119;31
2022/06/22 06:47:13;;;;;;;8.27;7.77;;;26.40;52.90;;;;;;20609;6890;118356;31
2022/06/22 06:49:45;;;;;;;8.33;7.73;;;26.20;52.90;;;;;;20599;6890;117323;31
2022/06/22 06:52:10;;;;;;;8.23;7.43;;;26.00;53.50;;;;;;20575;6890;116823;31
2022/06/22 06:54:37;;;;;;;7.87;7.27;;;25.80;54.20;;;;;;20359;6890;309237;31
2022/06/22 06:57:16;;;;;;;8.20;7.60;;;26.00;54.30;;;;;;20606;6890;117716;31
2022/06/22 06:59:41;;;;;;;8.50;7.80;;;26.10;54.40;;;;;;20596;6890;117800;31
2022/06/22 07:02:14;;;;;;;8.20;7.50;;;26.00;54.60;;;;;;20393;6890;309657;31
2022/06/22 07:04:39;;;;;;;8.63;7.93;;;26.30;54.00;;;;;;20602;6890;117029;31
2022/06/22 07:07:15;;;;;;;8.13;7.60;;;26.40;53.70;;;;;;20395;6890;309812;31
2022/06/22 07:09:41;;;;;;;8.27;7.72;;;26.60;53.20;;;;;;20136;6890;295258;31
2022/06/22 07:12:06;;;;;;;8.05;7.50;;;26.90;52.60;;;;;;20404;6890;279435;31
2022/06/22 07:14:32;;;;;;;7.57;7.10;;;27.20;52.30;;;;;;20591;6890;120196;31
2022/06/22 07:16:57;;;;;;;8.45;7.85;;;27.20;52.40;;;;;;20375;6890;309881;31
2022/06/22 07:19:33;;;;;;;7.37;6.95;;;27.40;52.30;;;;;;20620;6890;119896;31
2022/06/22 07:22:01;;;;;;;7.60;7.00;;;27.40;52.30;;;;;;20332;6890;117375;31
2022/06/22 07:24:33;;;;;;;7.63;7.13;;;27.30;52.50;;;;;;20573;6890;117112;31
2022/06/22 07:26:59;;;;;;;8.43;7.75;;;27.10;52.40;;;;;;20376;6890;281851;31
2022/06/22 07:29:27;;;;;;;8.10;7.60;;;27.40;52.30;;;;;;20352;6890;308747;31
2022/06/22 07:32:03;;;;;;;7.53;7.10;;;27.80;51.10;;;;;;20579;6890;117444;31
2022/06/22 07:34:32;;;;;;;7.27;6.87;;;27.80;51.10;;;;;;20349;6890;310627;31
2022/06/22 07:36:57;;;;;;;8.43;7.72;;;27.90;50.30;;;;;;19666;6890;340447;31
2022/06/22 07:39:23;;;;;;;8.00;7.47;;;28.10;50.20;;;;;;20570;6890;144502;31
2022/06/22 07:41:48;;;;;;;8.03;7.43;;;28.10;50.50;;;;;;20309;6888;281524;31
2022/06/22 07:44:17;;;;;;;8.17;7.53;;;28.20;50.80;;;;;;20393;6889;279487;31
2022/06/22 07:46:43;;;;;;;7.85;7.35;;;28.50;50.80;;;;;;20379;6889;308296;31
2022/06/22 07:49:11;;;;;;;7.77;7.27;;;28.80;50.60;;;;;;20583;6890;117546;31
2022/06/22 07:51:37;;;;;;;7.27;6.77;;;28.70;50.40;;;;;;20381;6890;309325;31
2022/06/22 07:54:09;;;;;;;7.62;7.05;;;28.90;49.90;;;;;;20356;6890;312195;31
2022/06/22 07:57:04;;;;;;;7.63;7.03;;;29.40;49.10;;;;;;20589;6890;119937;31
2022/06/22 07:59:29;;;;;;;7.90;7.40;;;29.50;49.00;;;;;;20375;6890;297985;31
2022/06/22 08:01:55;;;;;;;7.55;7.05;;;29.70;46.60;;;;;;20603;6890;117534;31
2022/06/22 08:04:33;;;;;;;6.77;6.27;;;29.60;47.20;;;;;;20618;6890;117157;31
2022/06/22 08:06:59;;;;;;;6.77;6.27;;;29.40;47.60;;;;;;20428;6890;117357;31
2022/06/22 08:09:31;;;;;;;7.03;6.63;;;29.10;48.00;;;;;;20368;6890;308993;31
2022/06/22 08:11:56;;;;;;;7.10;6.60;;;29.20;47.30;;;;;;20598;6890;117913;31
2022/06/22 08:14:31;;;;;;;8.15;7.43;;;29.10;47.70;;;;;;20389;6890;280111;31
2022/06/22 08:17:00;;;;;;;8.82;8.18;;;29.10;47.30;;;;;;20389;6890;339168;31
2022/06/22 08:19:27;;;;;;;7.10;6.53;;;29.30;46.60;;;;;;20378;6890;308780;31
2022/06/22 08:21:52;;;;;;;7.47;6.97;;;29.30;47.00;;;;;;20607;6890;117190;31
2022/06/22 08:24:18;;;;;;;7.20;6.70;;;29.10;47.50;;;;;;20625;6890;118896;31
2022/06/22 08:26:43;;;;;;;6.93;6.43;;;28.70;48.10;;;;;;20629;6890;118897;31
2022/06/22 08:29:09;;;;;;;8.17;6.73;;;28.40;49.30;;;;;;20642;6890;117689;31
2022/06/22 08:31:49;;;;;;;7.18;6.57;;;28.20;49.00;;;;;;20428;6890;309317;31
2022/06/22 08:34:15;;;;;;;6.70;6.17;;;28.30;48.40;;;;;;20622;6890;116951;31
2022/06/22 08:36:44;;;;;;;7.30;6.70;;;28.20;48.60;;;;;;20434;6890;309468;31
2022/06/22 08:39:09;;;;;;;6.93;6.30;;;28.40;48.70;;;;;;20283;6890;278762;31
2022/06/22 08:41:41;;;;;;;7.33;6.63;;;28.70;48.30;;;;;;20381;6890;299404;31
2022/06/22 08:44:23;;;;;;;7.03;6.63;;;28.90;48.10;;;;;;20563;6890;117157;31
2022/06/22 08:46:49;;;;;;;7.10;6.60;;;28.70;48.50;;;;;;20343;6890;282278;31
2022/06/22 08:49:37;;;;;;;7.33;6.77;;;28.70;48.70;;;;;;20357;6890;290007;31
2022/06/22 08:52:03;;;;;;;6.78;6.25;;;28.90;48.60;;;;;;20395;6890;342331;31
2022/06/22 08:54:58;;;;;;;6.93;6.43;;;29.00;48.30;;;;;;20405;6888;312115;31
2022/06/22 08:57:55;;;;;;;6.47;6.07;;;29.10;48.30;;;;;;20571;6889;117361;31
2022/06/22 09:00:40;;;;;;;6.80;6.30;;;28.70;48.70;;;;;;20599;6890;117557;31
2022/06/22 09:03:26;;;;;;;8.07;7.57;;;28.20;49.40;;;;;;20602;6890;116584;31
2022/06/22 09:06:25;;;;;;;6.60;6.10;;;27.90;50.00;;;;;;20612;6890;118161;31
2022/06/22 09:09:10;;;;;;;7.57;6.90;;;27.60;50.40;;;;;;20380;6890;309455;31
2022/06/22 09:11:55;;;;;;;6.87;6.50;;;27.90;50.90;;;;;;20579;6890;121853;31
2022/06/22 09:14:37;;;;;;;6.97;6.47;;;27.80;50.60;;;;;;20603;6890;116907;31
2022/06/22 09:17:22;;;;;;;7.73;7.13;;;27.60;50.90;;;;;;20591;6890;117244;31
2022/06/22 09:20:09;;;;;;;8.83;8.13;;;27.40;51.40;;;;;;20613;6890;119358;31
2022/06/22 09:22:43;;;;;;;8.27;7.57;;;27.30;51.80;;;;;;20379;6890;301142;31
2022/06/22 09:25:29;;;;;;;8.63;7.93;;;27.60;51.90;;;;;;20399;6890;282477;31
2022/06/22 09:28:01;;;;;;;8.67;7.37;;;28.10;51.00;;;;;;20381;6890;304343;31
2022/06/22 09:30:40;;;;;;;7.90;7.10;;;28.40;50.00;;;;;;20595;6890;117011;31
2022/06/22 09:33:18;;;;;;;8.70;8.05;;;28.30;49.90;;;;;;20314;6890;282070;31
2022/06/22 09:35:56;;;;;;;7.53;6.90;;;28.40;50.10;;;;;;20608;6890;117598;31
2022/06/22 09:38:48;;;;;;;9.23;8.57;;;28.30;50.10;;;;;;20401;6890;280155;31
2022/06/22 09:41:27;;;;;;;8.27;7.68;;;28.40;50.20;;;;;;20376;6890;310327;31
2022/06/22 09:44:33;;;;;;;9.57;8.70;;;28.60;49.60;;;;;;20590;6890;117283;31
2022/06/22 09:47:28;;;;;;;8.57;7.77;;;28.50;50.20;;;;;;20607;6890;117489;31
2022/06/22 09:50:13;;;;;;;8.60;8.10;;;28.10;50.60;;;;;;20610;6890;116901;31
2022/06/22 09:52:45;;;;;;;8.75;8.00;;;27.80;51.00;;;;;;20400;6890;331589;31
2022/06/22 09:58:13;;;;;;;7.90;7.10;;;28.10;50.70;;;;;;20604;6890;116971;31
2022/06/22 10:01:01;;;;;;;8.07;7.45;;;27.90;50.80;;;;;;20390;6890;309878;31
2022/06/22 10:03:27;;;;;;;9.33;8.63;;;28.20;50.60;;;;;;20381;6890;309424;31
2022/06/22 10:06:15;;;;;;;8.63;7.83;;;28.60;50.00;;;;;;20613;6888;117551;31
2022/06/22 10:08:44;;;;;;;7.90;7.30;;;28.60;49.80;;;;;;20374;6889;308764;31
2022/06/22 10:11:16;;;;;;;8.87;8.03;;;28.70;49.60;;;;;;20585;6890;117090;31
2022/06/22 10:13:58;;;;;;;7.97;7.17;;;28.70;50.60;;;;;;19868;6890;117408;31
2022/06/22 10:16:44;;;;;;;7.97;7.40;;;28.40;50.60;;;;;;20611;6890;117188;31
2022/06/22 10:19:12;;;;;;;8.30;7.80;;;28.10;50.50;;;;;;20374;6890;310801;31
2022/06/22 10:22:04;;;;;;;7.53;7.03;;;28.20;50.30;;;;;;20602;6890;117482;31
2022/06/22 10:24:47;;;;;;;8.27;7.78;;;28.20;50.20;;;;;;20382;6890;280640;31
2022/06/22 10:27:31;;;;;;;7.57;7.07;;;28.30;49.90;;;;;;20377;6890;309155;31
2022/06/22 10:30:23;;;;;;;8.07;7.40;;;28.60;49.40;;;;;;20341;6875;280492;31
2022/06/22 10:33:02;;;;;;;8.02;7.40;;;28.90;49.10;;;;;;20441;6875;333231;31
2022/06/22 10:35:42;;;;;;;7.90;7.30;;;29.10;48.40;;;;;;20402;6875;281717;31
2022/06/22 10:38:16;;;;;;;7.93;7.33;;;29.10;47.90;;;;;;19967;6875;119209;31
2022/06/22 10:47:22;;;;;;;7.78;7.07;;;29.00;48.20;;;;;;20449;6875;308394;31
2022/06/22 10:49:54;;;;;;;7.90;7.22;;;29.20;48.00;;;;;;20419;6875;338406;31
2022/06/22 10:52:39;;;;;;;8.17;7.40;;;29.20;47.60;;;;;;19723;6875;309015;31
2022/06/22 10:55:08;;;;;;;7.07;6.67;;;29.30;47.30;;;;;;19964;6875;118609;31
2022/06/22 10:57:53;;;;;;;7.40;6.77;;;28.90;47.80;;;;;;20641;6875;117151;31
2022/06/22 11:00:48;;;;;;;8.23;7.53;;;28.50;48.50;;;;;;20642;6875;118690;31
2022/06/22 11:03:27;;;;;;;8.20;7.60;;;28.00;49.00;;;;;;20428;6875;310931;31
2022/06/22 11:06:02;;;;;;;7.37;6.77;;;28.10;49.20;;;;;;20641;6881;117594;31
2022/06/22 11:08:41;;;;;;;7.90;7.27;;;28.00;49.20;;;;;;20629;6886;120213;31
2022/06/22 11:11:16;;;;;;;7.73;7.13;;;27.70;49.60;;;;;;20400;6877;290380;31
2022/06/22 11:14:12;;;;;;;7.07;6.47;;;27.80;49.60;;;;;;20597;6891;116455;31
2022/06/22 11:16:38;;;;;;;6.77;6.37;;;27.60;49.70;;;;;;20625;6884;118215;31
2022/06/22 11:19:17;;;;;;;8.83;6.60;;;27.30;50.20;;;;;;20638;6876;117243;31
2022/06/22 11:21:46;;;;;;;7.00;6.50;;;27.00;50.60;;;;;;20650;6876;117273;31
2022/06/22 11:24:51;;;;;;;7.95;7.10;;;26.90;51.10;;;;;;20442;6876;279226;31
2022/06/22 11:30:48;;;;;;;7.50;7.00;;;27.60;51.10;;;;;;20440;6876;338312;31
2022/06/22 11:32:50;;;;;;;7.23;6.63;;;27.90;50.60;;;;;;20611;6876;120707;31
2022/06/22 11:35:38;;;;;;;8.33;6.30;;;27.80;50.50;;;;;;20596;6876;117553;31
2022/06/22 11:38:24;;;;;;;6.77;6.10;;;27.60;50.90;;;;;;20433;6876;308628;31
2022/06/22 11:40:52;;;;;;;7.67;6.03;;;27.70;50.90;;;;;;20588;6881;117316;31
2022/06/22 11:43:28;;;;;;;7.63;5.97;;;27.70;50.80;;;;;;20595;6881;117701;31
2022/06/22 11:46:13;;;;;;;8.10;5.93;;;27.40;51.00;;;;;;20428;6881;308916;31
2022/06/22 11:48:56;;;;;;;5.90;5.47;;;27.60;51.60;;;;;;20620;6886;117231;31
2022/06/22 11:51:31;;;;;;;6.50;5.82;;;27.50;51.40;;;;;;20442;6876;307606;31
2022/06/22 11:54:10;;;;;;;6.78;5.65;;;27.70;52.20;;;;;;20457;6876;291535;31
2022/06/22 11:56:35;;;;;;;6.63;5.50;;;27.90;51.70;;;;;;20405;6877;279228;31
2022/06/22 11:59:21;;;;;;;7.40;5.62;;;28.00;51.40;;;;;;20435;6877;333541;31
2022/06/22 12:02:03;;;;;;;8.00;4.93;;;28.10;50.90;;;;;;20703;6877;116479;31
2022/06/22 12:04:45;;;;;;;8.70;5.77;;;27.90;50.70;;;;;;20476;6877;281172;31
2022/06/22 12:07:30;;;;;;;6.75;5.20;;;27.80;51.80;;;;;;20472;6877;309494;31
2022/06/22 12:10:03;;;;;;;6.13;5.23;;;28.00;51.00;;;;;;20633;6881;120173;31
2022/06/22 12:12:52;;;;;;;8.17;4.90;;;27.90;51.20;;;;;;20578;6886;117302;31
2022/06/22 12:15:40;;;;;;;9.32;5.87;;;27.60;51.70;;;;;;20399;6877;311831;31
2022/06/22 12:18:32;;;;;;;6.43;5.20;;;27.70;52.30;;;;;;20634;6881;117186;31
2022/06/22 12:21:21;;;;;;;8.67;5.20;;;27.70;52.30;;;;;;20413;6881;279599;31
2022/06/22 12:24:10;;;;;;;6.50;5.47;;;27.90;52.00;;;;;;20407;6886;310184;31
2022/06/22 12:26:52;;;;;;;9.18;5.60;;;28.20;51.20;;;;;;20433;6877;339166;31
2022/06/22 12:29:44;;;;;;;8.20;5.22;;;28.50;50.90;;;;;;20404;6875;279502;31
2022/06/22 12:32:29;;;;;;;7.97;5.10;;;28.60;50.60;;;;;;20453;6876;282610;31
2022/06/22 12:35:03;;;;;;;6.50;4.57;;;28.80;50.40;;;;;;20641;6876;116944;31
2022/06/22 12:37:23;;;;;;;7.97;5.50;;;28.60;50.50;;;;;;20394;6876;279779;31
2022/06/22 12:39:52;;;;;;;8.40;5.50;;;28.70;51.20;;;;;;20435;6876;315278;31
2022/06/22 12:42:54;;;;;;;6.50;5.10;;;29.00;50.10;;;;;;20432;6876;338864;31
2022/06/22 12:45:26;;;;;;;6.60;5.33;;;29.20;48.90;;;;;;19599;7218;122399;31
2022/06/22 12:47:58;;;;;;;5.30;4.80;;;29.10;49.70;;;;;;20159;6876;117216;31
2022/06/22 12:50:53;;;;;;;7.07;5.47;;;28.90;50.10;;;;;;20616;6876;117049;31
2022/06/22 12:53:20;;;;;;;6.70;5.20;;;28.70;50.30;;;;;;20624;6876;120060;31
2022/06/22 12:55:49;;;;;;;6.27;4.90;;;28.50;50.80;;;;;;20617;6876;119740;31
2022/06/22 12:58:17;;;;;;;9.63;5.50;;;28.40;51.20;;;;;;20637;6876;117174;31
2022/06/22 13:00:43;;;;;;;9.03;5.10;;;28.30;51.30;;;;;;20632;6876;117044;31
2022/06/22 13:03:19;;;;;;;6.40;5.60;;;28.30;51.50;;;;;;20429;6876;311521;31
2022/06/22 13:05:45;;;;;;;6.07;5.33;;;28.60;51.60;;;;;;20636;6877;117074;31
2022/06/22 13:08:12;;;;;;;5.60;5.03;;;28.70;51.30;;;;;;20643;6877;117030;31
2022/06/22 13:10:40;;;;;;;5.80;5.10;;;28.70;51.20;;;;;;20616;6877;117754;31
2022/06/22 13:13:16;;;;;;;7.20;5.10;;;28.70;51.20;;;;;;20640;6877;117539;31
2022/06/22 13:15:52;;;;;;;7.17;5.07;;;28.60;51.10;;;;;;20656;6877;117292;31
2022/06/22 13:18:30;;;;;;;6.73;5.90;;;28.60;51.00;;;;;;20423;6877;279615;31
2022/06/22 13:21:14;;;;;;;6.07;5.47;;;29.00;49.50;;;;;;20639;6877;117571;31
2022/06/22 13:23:39;;;;;;;11.43;5.80;;;29.00;49.30;;;;;;20656;6877;118289;31
2022/06/22 13:26:24;;;;;;;6.87;5.18;;;28.80;49.50;;;;;;20427;6877;292043;31
2022/06/22 13:29:13;;;;;;;7.90;5.20;;;28.90;49.60;;;;;;20629;6877;117208;31
2022/06/22 13:31:39;;;;;;;6.80;5.50;;;29.00;49.70;;;;;;20445;6877;281350;31
2022/06/22 13:34:07;;;;;;;6.68;4.82;;;29.20;48.60;;;;;;20644;6877;120958;31
2022/06/22 13:36:36;;;;;;;9.23;5.50;;;29.30;48.60;;;;;;20421;6877;313676;31
2022/06/22 13:39:02;;;;;;;7.60;5.70;;;29.40;48.40;;;;;;20445;6875;280099;31
2022/06/22 13:41:47;;;;;;;7.60;5.20;;;29.70;47.90;;;;;;20633;6876;117625;31